createdAt,value
2023-05-20T00:00:51.213Z,73.20
2023-05-20T00:02:58.859Z,72.80
2023-05-20T00:05:06.783Z,72.30
2023-05-20T00:07:14.365Z,71.70
2023-05-20T00:09:22.246Z,71.20
2023-05-20T00:11:31.180Z,71.00
2023-05-20T00:13:39.016Z,70.80
2023-05-20T00:15:46.351Z,70.40
2023-05-20T00:17:54.220Z,70.60
2023-05-20T00:20:01.640Z,70.40
2023-05-20T00:22:10.251Z,70.60
2023-05-20T00:24:17.902Z,70.60
2023-05-20T00:26:25.647Z,69.90
2023-05-20T00:28:37.068Z,69.50
2023-05-20T00:30:45.293Z,69.30
2023-05-20T00:32:52.907Z,68.90
2023-05-20T00:35:01.938Z,68.70
2023-05-20T00:37:09.686Z,68.80
2023-05-20T00:39:17.378Z,68.50
2023-05-20T00:41:25.084Z,68.70
2023-05-20T00:43:32.770Z,68.50
2023-05-20T00:45:42.241Z,68.40
2023-05-20T00:47:50.280Z,67.90
2023-05-20T00:49:57.895Z,67.90
2023-05-20T00:52:06.115Z,67.70
2023-05-20T00:54:13.902Z,67.30
2023-05-20T00:56:22.725Z,67.00
2023-05-20T00:58:30.109Z,66.90
2023-05-20T01:00:37.948Z,67.10
2023-05-20T01:02:47.138Z,66.90
2023-05-20T01:04:54.726Z,67.20
2023-05-20T01:07:02.934Z,67.00
2023-05-20T01:09:11.092Z,66.60
2023-05-20T01:11:25.580Z,66.80
2023-05-20T01:13:37.015Z,66.60
2023-05-20T01:15:46.842Z,66.10
2023-05-20T01:18:02.632Z,65.80
2023-05-20T01:20:12.899Z,65.30
2023-05-20T01:22:20.653Z,65.00
2023-05-20T01:24:30.279Z,64.60
2023-05-20T01:26:40.319Z,64.10
2023-05-20T01:28:47.766Z,64.00
2023-05-20T01:30:59.793Z,63.70
2023-05-20T01:33:12.623Z,63.40
2023-05-20T01:35:21.912Z,63.30
2023-05-20T01:37:33.248Z,63.00
2023-05-20T01:39:44.819Z,62.80
2023-05-20T01:41:53.232Z,62.50
2023-05-20T01:44:01.225Z,62.40
2023-05-20T01:46:10.921Z,62.20
2023-05-20T01:48:18.559Z,62.00
2023-05-20T01:50:26.458Z,62.10
2023-05-20T01:52:34.775Z,62.10
2023-05-20T01:54:44.675Z,62.30
2023-05-20T01:56:52.991Z,61.80
2023-05-20T01:59:02.456Z,61.80
2023-05-20T02:01:10.304Z,62.30
2023-05-20T02:03:17.705Z,61.70
2023-05-20T02:05:25.772Z,60.90
2023-05-20T02:07:33.242Z,60.60
2023-05-20T02:09:42.827Z,60.40
2023-05-20T02:11:50.316Z,60.40
2023-05-20T02:13:58.212Z,60.00
2023-05-20T02:16:05.858Z,59.60
2023-05-20T02:18:16.416Z,59.30
2023-05-20T02:20:24.891Z,58.90
2023-05-20T02:22:32.719Z,59.20
2023-05-20T02:24:40.258Z,59.30
2023-05-20T02:26:52.364Z,59.00
2023-05-20T02:28:59.954Z,59.10
2023-05-20T02:31:09.586Z,58.50
2023-05-20T02:33:16.939Z,58.60
2023-05-20T02:35:24.619Z,58.10
2023-05-20T02:37:32.030Z,57.00
2023-05-20T02:39:41.646Z,57.70
2023-05-20T02:41:50.825Z,57.60
2023-05-20T02:43:58.719Z,57.80
2023-05-20T02:46:08.734Z,58.00
2023-05-20T02:48:18.353Z,57.60
2023-05-20T02:50:25.758Z,56.20
2023-05-20T02:52:33.640Z,56.30
2023-05-20T02:54:40.928Z,56.50
2023-05-20T02:56:50.468Z,56.40
2023-05-20T02:58:58.163Z,56.70
2023-05-20T03:01:06.027Z,56.60
2023-05-20T03:03:14.833Z,56.10
2023-05-20T03:05:23.134Z,56.20
2023-05-20T03:07:37.229Z,55.50
2023-05-20T03:09:46.455Z,55.20
2023-05-20T03:11:55.381Z,54.80
2023-05-20T03:14:04.402Z,55.50
2023-05-20T03:16:14.220Z,54.20
2023-05-20T03:18:21.996Z,54.90
2023-05-20T03:20:30.294Z,54.70
2023-05-20T03:22:37.832Z,54.60
2023-05-20T03:24:45.486Z,54.50
2023-05-20T03:26:55.476Z,54.40
2023-05-20T03:29:12.331Z,54.50
2023-05-20T03:31:21.236Z,54.80
2023-05-20T03:33:31.915Z,54.60
2023-05-20T03:35:41.349Z,54.50
2023-05-20T03:37:49.313Z,54.10
2023-05-20T03:39:57.153Z,54.00
2023-05-20T03:42:07.617Z,54.20
2023-05-20T03:44:17.961Z,54.10
2023-05-20T03:46:25.879Z,53.60
2023-05-20T03:48:33.608Z,53.60
2023-05-20T03:50:41.263Z,53.70
2023-05-20T03:52:49.104Z,53.30
2023-05-20T03:55:08.944Z,53.70
2023-05-20T03:57:18.872Z,54.40
2023-05-20T03:59:26.053Z,53.90
2023-05-20T04:01:33.562Z,54.30
2023-05-20T04:03:41.002Z,54.60
2023-05-20T04:05:48.786Z,54.50
2023-05-20T04:08:00.670Z,54.40
2023-05-20T04:10:10.558Z,53.90
2023-05-20T04:12:20.511Z,53.20
2023-05-20T04:16:49.471Z,52.90
2023-05-20T04:21:18.020Z,51.90
2023-05-20T04:23:26.574Z,52.40
2023-05-20T04:25:38.611Z,52.70
2023-05-20T04:27:49.306Z,52.60
2023-05-20T04:29:57.190Z,52.60
2023-05-20T04:32:05.711Z,51.60
2023-05-20T04:34:13.449Z,51.20
2023-05-20T04:36:22.104Z,50.90
2023-05-20T04:38:30.935Z,50.80
2023-05-20T04:40:40.783Z,51.20
2023-05-20T04:42:50.245Z,50.50
2023-05-20T04:44:59.381Z,50.90
2023-05-20T04:47:09.124Z,50.90
2023-05-20T04:49:18.725Z,51.20
2023-05-20T04:51:26.627Z,50.60
2023-05-20T04:53:35.136Z,49.70
2023-05-20T04:55:43.228Z,49.60
2023-05-20T04:57:52.268Z,49.80
2023-05-20T05:00:00.524Z,49.60
2023-05-20T05:02:08.659Z,49.30
2023-05-20T05:04:16.912Z,49.00
2023-05-20T05:06:24.411Z,48.40
2023-05-20T05:08:32.105Z,48.50
2023-05-20T05:10:41.287Z,48.40
2023-05-20T05:15:14.178Z,48.60
2023-05-20T05:17:23.825Z,48.80
2023-05-20T05:19:31.382Z,48.80
2023-05-20T05:21:39.262Z,48.70
2023-05-20T05:23:46.654Z,48.50
2023-05-20T05:25:59.218Z,47.90
2023-05-20T05:28:09.468Z,47.10
2023-05-20T05:30:17.464Z,47.50
2023-05-20T05:32:25.055Z,47.50
2023-05-20T05:34:36.432Z,47.80
2023-05-20T05:36:45.097Z,48.10
2023-05-20T05:38:53.859Z,48.00
2023-05-20T05:41:01.403Z,47.80
2023-05-20T05:45:33.879Z,46.80
2023-05-20T05:47:43.894Z,47.00
2023-05-20T05:49:53.116Z,46.70
2023-05-20T05:52:01.046Z,46.20
2023-05-20T05:54:09.387Z,46.20
2023-05-20T05:56:17.282Z,46.70
2023-05-20T05:58:26.716Z,47.50
2023-05-20T06:02:55.821Z,48.40
2023-05-20T06:05:12.987Z,48.10
2023-05-20T06:07:20.887Z,48.50
2023-05-20T06:09:28.165Z,48.50
2023-05-20T06:11:36.226Z,48.30
2023-05-20T06:13:45.403Z,47.40
2023-05-20T06:15:54.877Z,46.90
2023-05-20T06:18:05.307Z,46.80
2023-05-20T06:20:14.784Z,46.70
2023-05-20T06:22:22.371Z,48.40
2023-05-20T06:24:30.165Z,47.80
2023-05-20T06:26:37.499Z,46.60
2023-05-20T06:28:47.388Z,45.30
2023-05-20T06:30:55.817Z,45.10
2023-05-20T06:33:05.150Z,44.30
2023-05-20T06:35:13.405Z,43.80
2023-05-20T06:37:21.342Z,43.60
2023-05-20T06:39:29.446Z,43.00
2023-05-20T06:41:37.046Z,41.60
2023-05-20T06:43:53.244Z,42.50
2023-05-20T06:46:20.280Z,44.80
2023-05-20T06:48:41.842Z,43.10
2023-05-20T06:50:49.744Z,42.80
2023-05-20T06:52:57.034Z,42.60
2023-05-20T06:55:05.281Z,43.50
2023-05-20T06:57:14.626Z,43.30
2023-05-20T06:59:24.167Z,42.80
2023-05-20T07:01:31.457Z,42.80
2023-05-20T07:03:39.069Z,43.40
2023-05-20T07:05:46.369Z,43.10
2023-05-20T07:07:54.361Z,42.30
2023-05-20T07:10:01.816Z,42.00
2023-05-20T07:12:10.120Z,41.90
2023-05-20T07:14:17.400Z,41.90
2023-05-20T07:16:28.254Z,41.90
2023-05-20T07:18:36.733Z,42.20
2023-05-20T07:20:44.616Z,42.10
2023-05-20T07:23:07.112Z,42.30
2023-05-20T07:25:22.581Z,42.10
2023-05-20T07:27:30.540Z,42.10
2023-05-20T07:29:39.503Z,42.10
2023-05-20T07:31:49.011Z,42.50
2023-05-20T07:33:58.678Z,42.80
2023-05-20T07:36:07.185Z,42.90
2023-05-20T07:40:43.473Z,42.20
2023-05-20T07:42:51.527Z,41.80
2023-05-20T07:44:59.786Z,41.60
2023-05-20T07:47:10.053Z,41.40
2023-05-20T07:49:19.677Z,41.50
2023-05-20T07:51:28.348Z,41.40
2023-05-20T07:53:35.744Z,41.20
2023-05-20T07:55:43.643Z,41.30
2023-05-20T07:57:53.107Z,41.80
2023-05-20T08:00:02.099Z,42.50
2023-05-20T08:02:13.272Z,42.60
2023-05-20T08:04:21.897Z,42.10
2023-05-20T08:06:30.053Z,42.30
2023-05-20T08:08:38.809Z,42.30
2023-05-20T08:10:50.967Z,42.20
2023-05-20T08:13:00.123Z,41.90
2023-05-20T08:15:07.683Z,41.60
2023-05-20T08:17:17.385Z,41.40
2023-05-20T08:19:24.808Z,41.20
2023-05-20T08:21:32.584Z,41.60
2023-05-20T08:23:40.718Z,41.40
2023-05-20T08:25:49.466Z,41.80
2023-05-20T08:27:58.813Z,42.00
2023-05-20T08:30:06.842Z,41.80
2023-05-20T08:32:16.082Z,41.70
2023-05-20T08:34:25.558Z,42.00
2023-05-20T08:36:34.194Z,42.10
2023-05-20T08:38:42.226Z,42.10
2023-05-20T08:40:54.942Z,42.20
2023-05-20T08:43:03.151Z,41.40
2023-05-20T08:45:25.078Z,41.40
2023-05-20T08:47:37.435Z,41.60
2023-05-20T08:49:46.460Z,41.80
2023-05-20T08:51:54.145Z,41.80
2023-05-20T08:54:04.039Z,41.90
2023-05-20T08:56:12.985Z,41.80
2023-05-20T08:58:20.966Z,42.70
2023-05-20T09:00:29.919Z,43.30
2023-05-20T09:02:41.201Z,43.70
2023-05-20T09:04:48.562Z,44.00
2023-05-20T09:07:02.230Z,43.70
2023-05-20T09:09:11.619Z,43.00
2023-05-20T09:11:19.624Z,42.50
2023-05-20T09:13:28.645Z,42.50
2023-05-20T09:15:40.648Z,42.70
2023-05-20T09:17:55.484Z,42.70
2023-05-20T09:20:02.934Z,42.60
2023-05-20T09:22:10.426Z,42.60
2023-05-20T09:24:17.760Z,42.80
2023-05-20T09:26:26.696Z,42.90
2023-05-20T09:28:34.074Z,43.00
2023-05-20T09:30:42.434Z,43.00
2023-05-20T09:32:57.577Z,43.50
2023-05-20T09:35:09.239Z,43.60
2023-05-20T09:37:31.770Z,43.30
2023-05-20T09:40:01.538Z,43.30
2023-05-20T09:42:15.728Z,42.60
2023-05-20T09:44:24.913Z,42.30
2023-05-20T09:46:32.783Z,42.30
2023-05-20T09:48:45.962Z,42.30
2023-05-20T09:50:55.166Z,42.90
2023-05-20T09:53:07.679Z,43.20
2023-05-20T09:55:16.330Z,42.60
2023-05-20T09:57:24.131Z,42.30
2023-05-20T09:59:35.207Z,42.20
2023-05-20T10:01:43.034Z,42.20
2023-05-20T10:03:52.137Z,42.60
2023-05-20T10:06:24.601Z,42.90
2023-05-20T10:08:45.925Z,43.20
2023-05-20T10:10:54.974Z,43.80
2023-05-20T10:15:55.694Z,44.00
2023-05-20T10:18:09.633Z,44.80
2023-05-20T10:20:19.175Z,45.40
2023-05-20T10:22:32.641Z,45.60
2023-05-20T10:24:43.137Z,46.00
2023-05-20T10:27:01.147Z,46.30
2023-05-20T10:29:22.450Z,45.90
2023-05-20T10:31:29.839Z,45.80
2023-05-20T10:33:46.328Z,45.80
2023-05-20T10:35:57.314Z,45.40
2023-05-20T10:38:15.659Z,45.40
2023-05-20T10:40:24.174Z,45.40
2023-05-20T10:42:34.700Z,45.70
2023-05-20T10:44:48.477Z,45.80
2023-05-20T10:47:24.596Z,45.90
2023-05-20T10:49:51.560Z,46.80
2023-05-20T10:52:03.415Z,47.40
2023-05-20T10:54:14.376Z,47.10
2023-05-20T10:56:22.647Z,46.60
2023-05-20T10:58:29.720Z,46.70
2023-05-20T11:00:39.479Z,46.90
2023-05-20T11:02:47.560Z,46.70
2023-05-20T11:04:55.717Z,46.90
2023-05-20T11:07:08.317Z,46.70
2023-05-20T11:09:16.792Z,46.20
2023-05-20T11:11:24.584Z,46.30
2023-05-20T11:13:32.175Z,46.90
2023-05-20T11:15:44.989Z,46.90
2023-05-20T11:18:03.898Z,47.10
2023-05-20T11:20:12.414Z,47.20
2023-05-20T11:22:21.704Z,47.50
2023-05-20T11:24:29.867Z,48.10
2023-05-20T11:26:37.661Z,48.00
2023-05-20T11:28:45.188Z,47.70
2023-05-20T11:30:53.688Z,47.80
2023-05-20T11:33:04.969Z,48.80
2023-05-20T11:35:23.411Z,51.70
2023-05-20T11:37:33.224Z,53.40
2023-05-20T11:39:42.226Z,54.30
2023-05-20T11:41:49.457Z,54.50
2023-05-20T11:44:02.239Z,54.40
2023-05-20T11:46:09.882Z,54.50
2023-05-20T11:48:18.334Z,54.20
2023-05-20T11:50:26.499Z,55.70
2023-05-20T11:52:38.019Z,56.30
2023-05-20T11:54:52.360Z,55.60
2023-05-20T11:57:10.717Z,54.70
2023-05-20T11:59:19.169Z,53.00
2023-05-20T12:01:27.241Z,52.70
2023-05-20T12:03:34.840Z,52.40
2023-05-20T12:05:46.862Z,52.60
2023-05-20T12:07:56.568Z,51.80
2023-05-20T12:10:04.241Z,51.40
2023-05-20T12:12:15.316Z,51.40
2023-05-20T12:14:22.759Z,52.00
2023-05-20T12:16:30.098Z,52.00
2023-05-20T12:18:37.477Z,52.40
2023-05-20T12:20:46.091Z,53.00
2023-05-20T12:23:00.442Z,53.10
2023-05-20T12:25:15.096Z,52.70
2023-05-20T12:27:23.462Z,53.10
2023-05-20T12:29:30.689Z,52.60
2023-05-20T12:31:39.043Z,52.90
2023-05-20T12:33:47.160Z,52.20
2023-05-20T12:35:56.836Z,52.00
2023-05-20T12:38:06.290Z,52.60
2023-05-20T12:42:37.018Z,53.50
2023-05-20T12:44:44.368Z,54.10
2023-05-20T12:46:52.298Z,53.50
2023-05-20T12:48:59.848Z,53.20
2023-05-20T12:53:30.489Z,51.90
2023-05-20T12:55:38.029Z,51.40
2023-05-20T12:57:46.968Z,51.40
2023-05-20T12:59:54.795Z,51.60
2023-05-20T13:02:02.421Z,52.60
2023-05-20T13:04:10.504Z,53.40
2023-05-20T13:06:18.296Z,53.90
2023-05-20T13:08:26.553Z,54.10
2023-05-20T13:10:40.805Z,53.60
2023-05-20T13:12:53.159Z,53.20
2023-05-20T13:15:00.905Z,52.80
2023-05-20T13:17:08.687Z,52.50
2023-05-20T13:19:16.534Z,52.30
2023-05-20T13:21:24.133Z,52.30
2023-05-20T13:23:31.721Z,52.50
2023-05-20T13:25:41.063Z,52.10
2023-05-20T13:27:48.915Z,52.20
2023-05-20T13:29:56.388Z,52.10
2023-05-20T13:32:03.958Z,52.80
2023-05-20T13:34:11.533Z,53.40
2023-05-20T13:36:21.933Z,53.60
2023-05-20T13:38:29.921Z,53.70
2023-05-20T13:40:39.565Z,53.80
2023-05-20T13:42:47.215Z,53.90
2023-05-20T13:44:54.957Z,53.40
2023-05-20T13:47:08.089Z,53.20
2023-05-20T13:49:16.015Z,55.50
2023-05-20T13:51:23.460Z,57.40
2023-05-20T13:53:31.203Z,58.00
2023-05-20T13:55:45.189Z,56.70
2023-05-20T13:57:56.224Z,56.30
2023-05-20T14:00:03.506Z,56.20
2023-05-20T14:02:15.836Z,56.00
2023-05-20T14:04:23.451Z,55.30
2023-05-20T14:06:39.437Z,55.00
2023-05-20T14:08:46.678Z,55.60
2023-05-20T14:10:56.778Z,56.90
2023-05-20T14:13:04.214Z,56.40
2023-05-20T14:15:12.840Z,55.60
2023-05-20T14:17:21.542Z,55.10
2023-05-20T14:19:29.859Z,55.20
2023-05-20T14:21:37.237Z,54.70
2023-05-20T14:23:46.358Z,54.40
2023-05-20T14:28:23.963Z,54.30
2023-05-20T14:30:31.670Z,54.90
2023-05-20T14:32:39.525Z,55.40
2023-05-20T14:34:47.102Z,56.40
2023-05-20T14:36:55.147Z,57.60
2023-05-20T14:39:02.588Z,57.90
2023-05-20T14:41:12.227Z,56.70
2023-05-20T14:43:19.608Z,56.10
2023-05-20T14:45:27.526Z,56.00
2023-05-20T14:47:35.050Z,55.70
2023-05-20T14:49:43.461Z,55.70
2023-05-20T14:51:51.242Z,55.90
2023-05-20T14:53:58.863Z,55.80
2023-05-20T14:56:06.285Z,55.70
2023-05-20T14:58:15.561Z,56.20
2023-05-20T15:00:23.416Z,57.20
2023-05-20T15:02:31.099Z,60.00
2023-05-20T15:04:39.003Z,59.70
2023-05-20T15:06:46.458Z,58.50
2023-05-20T15:08:54.017Z,57.90
2023-05-20T15:11:01.294Z,57.40
2023-05-20T15:13:08.808Z,57.10
2023-05-20T15:15:17.953Z,56.80
2023-05-20T15:17:25.600Z,56.80
2023-05-20T15:19:33.879Z,57.00
2023-05-20T15:21:41.625Z,57.50
2023-05-20T15:23:49.119Z,57.40
2023-05-20T15:25:56.916Z,57.10
2023-05-20T15:28:04.353Z,56.60
2023-05-20T15:30:13.541Z,56.30
2023-05-20T15:32:22.836Z,56.10
2023-05-20T15:34:30.311Z,55.80
2023-05-20T15:36:37.691Z,55.60
2023-05-20T15:38:45.407Z,55.50
2023-05-20T15:40:53.242Z,55.20
2023-05-20T15:43:01.706Z,55.10
2023-05-20T15:45:10.424Z,54.90
2023-05-20T15:47:17.965Z,54.60
2023-05-20T15:49:27.287Z,54.50
2023-05-20T15:51:34.570Z,54.20
2023-05-20T15:53:42.108Z,54.10
2023-05-20T15:55:49.543Z,53.90
2023-05-20T15:57:57.506Z,53.70
2023-05-20T16:00:06.983Z,53.70
2023-05-20T16:02:14.410Z,53.70
2023-05-20T16:04:21.890Z,53.70
2023-05-20T16:06:31.556Z,53.70
2023-05-20T16:08:39.021Z,53.80
2023-05-20T16:10:46.627Z,53.90
2023-05-20T16:12:53.812Z,54.20
2023-05-20T16:15:01.450Z,54.30
2023-05-20T16:17:08.851Z,54.60
2023-05-20T16:19:16.428Z,54.70
2023-05-20T16:21:26.216Z,54.70
2023-05-20T16:23:35.403Z,54.90
2023-05-20T16:25:42.889Z,55.10
2023-05-20T16:27:50.690Z,55.00
2023-05-20T16:29:57.809Z,55.60
2023-05-20T16:32:05.540Z,55.80
2023-05-20T16:34:13.253Z,56.00
2023-05-20T16:36:20.891Z,56.10
2023-05-20T16:38:28.328Z,56.30
2023-05-20T16:40:37.924Z,56.50
2023-05-20T16:42:45.834Z,57.30
2023-05-20T16:44:54.529Z,57.30
2023-05-20T16:47:01.815Z,57.20
2023-05-20T16:49:09.919Z,57.30
2023-05-20T16:51:17.359Z,57.40
2023-05-20T16:53:24.691Z,57.60
2023-05-20T16:55:32.436Z,57.80
2023-05-20T16:57:41.668Z,58.20
2023-05-20T16:59:49.514Z,57.80
2023-05-20T17:01:56.589Z,57.50
2023-05-20T17:04:04.277Z,57.30
2023-05-20T17:06:11.932Z,57.30
2023-05-20T17:08:19.425Z,57.50
2023-05-20T17:10:26.553Z,57.60
2023-05-20T17:12:34.035Z,57.80
2023-05-20T17:14:43.038Z,57.90
2023-05-20T17:16:50.650Z,58.20
2023-05-20T17:18:58.792Z,58.30
2023-05-20T17:21:06.612Z,58.40
2023-05-20T17:23:15.901Z,58.50
2023-05-20T17:25:23.688Z,58.60
2023-05-20T17:27:31.132Z,58.80
2023-05-20T17:29:38.866Z,59.00
2023-05-20T17:31:48.261Z,59.20
2023-05-20T17:33:56.152Z,59.40
2023-05-20T17:36:03.541Z,59.40
2023-05-20T17:38:11.070Z,59.30
2023-05-20T17:40:18.929Z,59.20
2023-05-20T17:42:26.585Z,59.20
2023-05-20T17:44:34.208Z,59.50
2023-05-20T17:46:41.994Z,59.70
2023-05-20T17:48:51.233Z,59.80
2023-05-20T17:50:59.636Z,60.00
2023-05-20T17:53:07.251Z,60.10
2023-05-20T17:55:15.693Z,60.20
2023-05-20T17:57:23.145Z,60.30
2023-05-20T17:59:30.831Z,60.50
2023-05-20T18:01:39.164Z,60.50
2023-05-20T18:03:47.005Z,60.80
2023-05-20T18:05:56.621Z,61.10
2023-05-20T18:08:04.537Z,61.60
2023-05-20T18:10:12.887Z,61.80
2023-05-20T18:12:20.414Z,62.30
2023-05-20T18:14:28.055Z,63.60
2023-05-20T18:16:35.474Z,64.50
2023-05-20T18:18:42.874Z,64.70
2023-05-20T18:20:50.383Z,65.40
2023-05-20T18:22:59.860Z,65.50
2023-05-20T18:25:07.513Z,65.00
2023-05-20T18:27:15.454Z,64.40
2023-05-20T18:29:24.482Z,64.40
2023-05-20T18:31:32.376Z,64.40
2023-05-20T18:33:40.015Z,63.70
2023-05-20T18:35:47.810Z,63.40
2023-05-20T18:37:55.046Z,63.10
2023-05-20T18:40:04.527Z,63.10
2023-05-20T18:42:12.239Z,62.90
2023-05-20T18:44:21.144Z,63.00
2023-05-20T18:46:28.585Z,63.00
2023-05-20T18:48:36.241Z,63.10
2023-05-20T18:50:43.708Z,63.30
2023-05-20T18:52:51.463Z,63.40
2023-05-20T18:54:58.754Z,63.30
2023-05-20T18:57:09.395Z,63.30
2023-05-20T18:59:17.106Z,63.30
2023-05-20T19:01:25.236Z,63.30
2023-05-20T19:03:32.848Z,63.20
2023-05-20T19:05:40.749Z,63.20
2023-05-20T19:07:48.384Z,63.30
2023-05-20T19:09:56.026Z,63.20
2023-05-20T19:12:03.621Z,63.20
2023-05-20T19:14:13.255Z,63.20
2023-05-20T19:16:20.777Z,63.30
2023-05-20T19:18:29.106Z,63.40
2023-05-20T19:20:36.856Z,63.70
2023-05-20T19:22:44.444Z,63.90
2023-05-20T19:24:52.085Z,63.80
2023-05-20T19:26:59.824Z,63.80
2023-05-20T19:29:07.999Z,64.10
2023-05-20T19:31:22.108Z,64.00
2023-05-20T19:33:29.610Z,63.90
2023-05-20T19:35:37.746Z,64.00
2023-05-20T19:37:45.317Z,64.00
2023-05-20T19:39:53.200Z,64.30
2023-05-20T19:42:00.706Z,64.50
2023-05-20T19:44:08.795Z,64.80
2023-05-20T19:46:17.911Z,65.20
2023-05-20T19:48:25.627Z,65.70
2023-05-20T19:50:32.908Z,66.70
2023-05-20T19:52:40.494Z,67.20
2023-05-20T19:54:47.874Z,67.50
2023-05-20T19:56:55.418Z,68.20
2023-05-20T19:59:02.810Z,68.10
2023-05-20T20:01:12.024Z,68.10
2023-05-20T20:03:21.381Z,68.30
2023-05-20T20:05:29.363Z,68.40
2023-05-20T20:07:37.065Z,68.30
2023-05-20T20:09:46.203Z,68.30
2023-05-20T20:11:55.018Z,68.40
2023-05-20T20:14:02.602Z,68.50
2023-05-20T20:16:10.722Z,69.00
2023-05-20T20:18:20.291Z,68.90
2023-05-20T20:20:28.133Z,68.70
2023-05-20T20:22:35.578Z,68.70
2023-05-20T20:24:42.969Z,68.60
2023-05-20T20:26:50.564Z,68.80
2023-05-20T20:28:57.797Z,69.30
2023-05-20T20:31:05.589Z,69.60
2023-05-20T20:33:13.014Z,70.20
2023-05-20T20:35:23.784Z,70.70
2023-05-20T20:37:30.982Z,71.60
2023-05-20T20:39:38.505Z,71.50
2023-05-20T20:41:46.200Z,70.90
2023-05-20T20:43:53.636Z,70.80
2023-05-20T20:46:01.177Z,71.10
2023-05-20T20:48:08.929Z,70.70
2023-05-20T20:50:16.422Z,70.60
2023-05-20T20:52:26.002Z,70.60
2023-05-20T20:54:34.022Z,71.10
2023-05-20T20:56:42.573Z,70.90
2023-05-20T20:58:50.010Z,70.70
2023-05-20T21:00:57.938Z,70.80
2023-05-20T21:03:05.274Z,71.90
2023-05-20T21:05:13.549Z,73.50
2023-05-20T21:07:20.931Z,75.00
2023-05-20T21:09:30.221Z,75.80
2023-05-20T21:11:39.504Z,76.70
2023-05-20T21:13:47.157Z,76.80
2023-05-20T21:15:54.323Z,76.80
2023-05-20T21:18:01.786Z,77.20
2023-05-20T21:20:09.971Z,76.40
2023-05-20T21:22:17.601Z,75.50
2023-05-20T21:24:25.096Z,75.50
2023-05-20T21:26:34.371Z,75.60
2023-05-20T21:28:41.573Z,76.50
2023-05-20T21:30:49.070Z,77.60
2023-05-20T21:32:56.484Z,78.30
2023-05-20T21:35:04.309Z,78.80
2023-05-20T21:37:11.723Z,79.00
2023-05-20T21:39:19.454Z,79.00
2023-05-20T21:41:27.049Z,78.70
2023-05-20T21:43:37.095Z,78.20
2023-05-20T21:45:44.691Z,77.80
2023-05-20T21:47:52.470Z,77.50
2023-05-20T21:49:59.834Z,77.50
2023-05-20T21:52:07.682Z,77.50
2023-05-20T21:54:15.108Z,77.50
2023-05-20T21:56:22.922Z,78.10
2023-05-20T21:58:30.091Z,79.00
2023-05-20T22:00:39.267Z,78.70
2023-05-20T22:02:46.785Z,80.20
2023-05-20T22:04:54.602Z,80.10
2023-05-20T22:07:02.104Z,80.30
2023-05-20T22:09:10.002Z,80.40
2023-05-20T22:11:17.333Z,80.40
2023-05-20T22:13:27.173Z,80.40
2023-05-20T22:15:35.457Z,80.50
2023-05-20T22:17:45.978Z,80.70
2023-05-20T22:19:54.858Z,80.10
2023-05-20T22:22:02.756Z,79.50
2023-05-20T22:24:10.451Z,79.10
2023-05-20T22:26:19.982Z,79.50
2023-05-20T22:28:27.622Z,79.90
2023-05-20T22:30:35.643Z,79.80
2023-05-20T22:32:45.011Z,80.70
2023-05-20T22:34:54.503Z,81.60
2023-05-20T22:37:02.038Z,81.70
2023-05-20T22:39:09.697Z,82.10
2023-05-20T22:41:17.066Z,81.30
2023-05-20T22:43:25.830Z,81.90
2023-05-20T22:45:33.174Z,82.00
2023-05-20T22:47:41.018Z,82.00
2023-05-20T22:49:50.395Z,82.70
2023-05-20T22:51:57.993Z,82.80
2023-05-20T22:54:05.333Z,83.60
2023-05-20T22:56:12.823Z,83.40
2023-05-20T22:58:20.045Z,83.80
2023-05-20T23:00:27.434Z,83.50
2023-05-20T23:02:34.679Z,83.70
2023-05-20T23:04:42.802Z,83.80
2023-05-20T23:06:55.915Z,84.10
2023-05-20T23:09:05.690Z,83.80
2023-05-20T23:11:13.647Z,83.20
2023-05-20T23:13:21.620Z,82.80
2023-05-20T23:15:29.236Z,83.40
2023-05-20T23:17:37.076Z,83.90
2023-05-20T23:19:44.680Z,83.90
2023-05-20T23:21:54.114Z,84.20
2023-05-20T23:24:01.430Z,84.50
2023-05-20T23:26:09.259Z,84.00
2023-05-20T23:28:16.569Z,83.50
2023-05-20T23:30:24.368Z,83.10
2023-05-20T23:32:31.829Z,82.40
2023-05-20T23:34:39.654Z,81.90
2023-05-20T23:36:47.240Z,81.10
2023-05-20T23:38:56.778Z,80.90
2023-05-20T23:41:04.315Z,80.80
2023-05-20T23:43:12.061Z,80.30
2023-05-20T23:45:19.449Z,79.70
2023-05-20T23:47:31.120Z,79.20
2023-05-20T23:49:39.079Z,78.90
2023-05-20T23:51:46.875Z,78.30
2023-05-20T23:53:56.167Z,77.60
2023-05-20T23:56:04.080Z,77.00
2023-05-20T23:58:11.596Z,76.30
